createdAt,value
2023-07-15T00:02:29.720Z,21.27
2023-07-15T00:05:02.641Z,21.29
2023-07-15T00:07:34.900Z,21.32
2023-07-15T00:10:11.792Z,21.30
2023-07-15T00:12:44.001Z,21.30
2023-07-15T00:15:17.587Z,21.31
2023-07-15T00:17:49.904Z,21.38
2023-07-15T00:20:22.866Z,21.39
2023-07-15T00:22:55.142Z,21.40
2023-07-15T00:25:32.720Z,21.41
2023-07-15T00:28:06.903Z,21.34
2023-07-15T00:30:39.682Z,21.32
2023-07-15T00:33:17.830Z,21.29
2023-07-15T00:35:50.675Z,21.26
2023-07-15T00:38:22.844Z,21.21
2023-07-15T00:40:58.264Z,21.21
2023-07-15T00:44:00.752Z,21.18
2023-07-15T00:47:05.586Z,21.19
2023-07-15T00:49:39.725Z,21.17
2023-07-15T00:52:16.228Z,21.14
2023-07-15T00:55:24.112Z,21.11
2023-07-15T00:57:58.771Z,21.05
2023-07-15T01:00:32.452Z,21.00
2023-07-15T01:03:07.827Z,21.00
2023-07-15T01:05:40.208Z,20.99
2023-07-15T01:08:12.682Z,20.94
2023-07-15T01:13:36.041Z,20.82
2023-07-15T01:16:09.192Z,20.78
2023-07-15T01:18:44.510Z,20.75
2023-07-15T01:21:20.583Z,20.74
2023-07-15T01:23:55.868Z,20.70
2023-07-15T01:27:03.468Z,20.65
2023-07-15T01:29:36.491Z,20.62
2023-07-15T01:32:09.686Z,20.57
2023-07-15T01:34:42.982Z,20.59
2023-07-15T01:37:15.344Z,20.53
2023-07-15T01:39:51.125Z,20.49
2023-07-15T01:42:23.365Z,20.48
2023-07-15T01:44:53.355Z,20.49
2023-07-15T01:47:25.585Z,20.43
2023-07-15T01:49:58.123Z,20.36
2023-07-15T01:52:30.645Z,20.38
2023-07-15T01:55:05.841Z,20.32
2023-07-15T02:01:21.726Z,20.28
2023-07-15T02:03:54.502Z,20.27
2023-07-15T02:06:27.404Z,20.18
2023-07-15T02:09:00.168Z,20.15
2023-07-15T02:11:35.761Z,20.14
2023-07-15T02:14:10.285Z,20.08
2023-07-15T02:19:28.690Z,20.05
2023-07-15T02:22:01.271Z,20.04
2023-07-15T02:24:33.907Z,19.98
2023-07-15T02:27:09.525Z,19.94
2023-07-15T02:29:42.439Z,19.92
2023-07-15T02:32:19.759Z,19.85
2023-07-15T02:34:52.381Z,19.80
2023-07-15T02:37:24.839Z,19.85
2023-07-15T02:39:57.408Z,19.84
2023-07-15T02:42:34.756Z,19.82
2023-07-15T02:45:09.137Z,19.76
2023-07-15T02:47:42.220Z,19.75
2023-07-15T02:50:15.061Z,19.75
2023-07-15T02:52:47.383Z,19.71
2023-07-15T02:55:20.048Z,19.70
2023-07-15T02:57:55.320Z,19.70
2023-07-15T03:00:28.177Z,19.66
2023-07-15T03:03:01.199Z,19.65
2023-07-15T03:05:33.948Z,19.63
2023-07-15T03:08:06.854Z,19.59
2023-07-15T03:10:39.844Z,19.57
2023-07-15T03:13:15.191Z,19.58
2023-07-15T03:15:48.137Z,19.55
2023-07-15T03:18:23.061Z,19.48
2023-07-15T03:20:56.401Z,19.55
2023-07-15T03:23:28.971Z,19.50
2023-07-15T03:26:01.714Z,19.53
2023-07-15T03:28:36.543Z,19.51
2023-07-15T03:31:08.818Z,19.51
2023-07-15T03:33:40.818Z,19.56
2023-07-15T03:36:59.248Z,19.56
2023-07-15T03:39:31.498Z,19.59
2023-07-15T03:42:18.662Z,19.50
2023-07-15T03:44:53.461Z,19.59
2023-07-15T03:47:25.716Z,19.62
2023-07-15T03:49:57.640Z,19.54
2023-07-15T03:52:29.783Z,19.56
2023-07-15T03:55:04.902Z,19.52
2023-07-15T03:57:37.601Z,19.61
2023-07-15T04:00:18.990Z,19.64
2023-07-15T04:02:54.988Z,19.60
2023-07-15T04:05:27.183Z,19.61
2023-07-15T04:07:59.679Z,19.63
2023-07-15T04:10:31.788Z,19.64
2023-07-15T04:13:04.103Z,19.65
2023-07-15T04:15:38.776Z,19.70
2023-07-15T04:18:11.260Z,19.85
2023-07-15T04:20:44.006Z,19.86
2023-07-15T04:23:16.506Z,20.00
2023-07-15T04:25:49.583Z,20.08
2023-07-15T04:28:43.471Z,20.26
2023-07-15T04:31:18.425Z,20.26
2023-07-15T04:33:52.403Z,20.34
2023-07-15T04:36:26.383Z,20.48
2023-07-15T04:38:58.855Z,20.57
2023-07-15T04:41:31.283Z,20.73
2023-07-15T04:44:03.836Z,20.69
2023-07-15T04:46:38.727Z,20.81
2023-07-15T04:49:12.012Z,20.94
2023-07-15T04:51:49.610Z,20.99
2023-07-15T04:54:21.770Z,21.03
2023-07-15T04:56:53.686Z,21.12
2023-07-15T04:59:26.011Z,21.24
2023-07-15T05:02:00.525Z,21.34
2023-07-15T05:04:32.642Z,21.50
2023-07-15T05:07:04.425Z,21.56
2023-07-15T05:09:36.622Z,21.64
2023-07-15T05:12:09.682Z,21.79
2023-07-15T05:14:42.065Z,21.92
2023-07-15T05:17:16.524Z,22.39
2023-07-15T05:19:48.647Z,23.21
2023-07-15T05:23:19.982Z,23.96
2023-07-15T05:26:06.785Z,25.20
2023-07-15T05:28:39.870Z,25.97
2023-07-15T05:31:12.608Z,25.83
2023-07-15T05:33:48.443Z,25.20
2023-07-15T05:36:23.346Z,26.56
2023-07-15T05:38:55.499Z,26.30
2023-07-15T05:41:28.081Z,26.70
2023-07-15T05:44:00.259Z,27.17
2023-07-15T05:46:32.936Z,28.01
2023-07-15T05:49:07.773Z,27.97
2023-07-15T05:51:40.248Z,28.10
2023-07-15T05:54:12.413Z,28.50
2023-07-15T05:56:45.490Z,28.87
2023-07-15T05:59:17.626Z,28.00
2023-07-15T06:01:50.249Z,27.73
2023-07-15T06:04:25.085Z,28.31
2023-07-15T06:06:57.630Z,28.82
2023-07-15T06:09:29.861Z,28.41
2023-07-15T06:12:02.381Z,29.33
2023-07-15T06:14:35.442Z,29.62
2023-07-15T06:17:08.559Z,29.96
2023-07-15T06:19:43.581Z,29.74
2023-07-15T06:22:16.139Z,29.63
2023-07-15T06:24:50.260Z,29.62
2023-07-15T06:27:22.820Z,30.07
2023-07-15T06:29:55.002Z,29.52
2023-07-15T06:32:27.625Z,29.08
2023-07-15T06:35:02.512Z,29.91
2023-07-15T06:37:36.923Z,30.00
2023-07-15T06:40:12.063Z,30.23
2023-07-15T06:42:44.563Z,30.32
2023-07-15T06:45:17.196Z,30.98
2023-07-15T06:47:49.843Z,30.34
2023-07-15T06:50:27.735Z,30.55
2023-07-15T06:53:03.200Z,30.82
2023-07-15T06:55:35.382Z,30.92
2023-07-15T06:58:08.082Z,31.00
2023-07-15T07:00:40.256Z,30.70
2023-07-15T07:03:12.786Z,30.73
2023-07-15T07:05:47.793Z,31.02
2023-07-15T07:08:20.444Z,31.92
2023-07-15T07:11:08.562Z,31.34
2023-07-15T07:13:41.172Z,32.24
2023-07-15T07:16:13.371Z,32.11
2023-07-15T07:18:46.502Z,31.78
2023-07-15T07:21:25.643Z,32.53
2023-07-15T07:24:00.024Z,32.85
2023-07-15T07:26:32.120Z,31.95
2023-07-15T07:29:07.479Z,32.84
2023-07-15T07:31:39.520Z,33.45
2023-07-15T07:34:12.671Z,33.27
2023-07-15T07:36:47.521Z,33.34
2023-07-15T07:39:20.023Z,33.06
2023-07-15T07:41:52.182Z,33.54
2023-07-15T07:44:25.010Z,34.23
2023-07-15T07:46:57.251Z,34.46
2023-07-15T07:49:30.561Z,34.06
2023-07-15T07:52:07.268Z,34.04
2023-07-15T07:54:41.336Z,34.47
2023-07-15T07:57:15.701Z,34.19
2023-07-15T07:59:48.062Z,34.42
2023-07-15T08:02:30.280Z,34.74
2023-07-15T08:05:11.530Z,35.18
2023-07-15T08:07:48.222Z,34.80
2023-07-15T08:10:48.737Z,34.34
2023-07-15T08:13:25.701Z,35.04
2023-07-15T08:16:01.977Z,34.64
2023-07-15T08:18:33.664Z,35.73
2023-07-15T08:24:50.167Z,35.93
2023-07-15T08:27:23.687Z,36.06
2023-07-15T08:29:55.702Z,36.05
2023-07-15T08:32:28.113Z,36.80
2023-07-15T08:35:03.824Z,36.80
2023-07-15T08:37:36.547Z,36.36
2023-07-15T08:43:57.146Z,36.80
2023-07-15T08:46:31.019Z,36.45
2023-07-15T08:49:04.563Z,36.96
2023-07-15T08:52:19.866Z,37.71
2023-07-15T08:55:45.480Z,36.86
2023-07-15T08:58:17.857Z,36.77
2023-07-15T09:00:56.056Z,37.01
2023-07-15T09:03:29.407Z,36.92
2023-07-15T09:06:05.000Z,37.48
2023-07-15T09:08:37.760Z,37.30
2023-07-15T09:11:12.813Z,37.06
2023-07-15T09:13:46.057Z,37.34
2023-07-15T09:16:18.410Z,37.39
2023-07-15T09:18:50.701Z,38.44
2023-07-15T09:21:22.767Z,38.73
2023-07-15T09:23:54.869Z,37.88
2023-07-15T09:26:29.407Z,38.13
2023-07-15T09:29:01.643Z,37.85
2023-07-15T09:32:27.954Z,37.58
2023-07-15T09:35:12.800Z,38.11
2023-07-15T09:37:44.910Z,38.53
2023-07-15T09:44:13.342Z,38.74
2023-07-15T09:46:45.887Z,38.10
2023-07-15T09:49:17.856Z,38.69
2023-07-15T09:51:50.563Z,38.38
2023-07-15T09:54:25.883Z,38.13
2023-07-15T09:57:04.768Z,37.77
2023-07-15T09:59:48.929Z,38.44
2023-07-15T10:02:34.661Z,38.39
2023-07-15T10:05:11.284Z,38.38
2023-07-15T10:07:56.080Z,39.05
2023-07-15T10:10:47.644Z,38.98
2023-07-15T10:13:22.027Z,38.84
2023-07-15T10:16:00.501Z,38.41
2023-07-15T10:18:35.726Z,38.17
2023-07-15T10:21:10.642Z,38.10
2023-07-15T10:23:43.133Z,38.07
2023-07-15T10:26:26.366Z,38.55
2023-07-15T10:29:28.961Z,38.84
2023-07-15T10:32:31.075Z,37.90
2023-07-15T10:35:08.888Z,38.32
2023-07-15T10:37:41.185Z,37.84
2023-07-15T10:40:53.811Z,38.89
2023-07-15T10:43:39.582Z,38.62
2023-07-15T10:46:15.150Z,38.25
2023-07-15T10:48:50.282Z,37.90
2023-07-15T10:51:25.324Z,38.04
2023-07-15T10:53:57.542Z,38.79
2023-07-15T10:56:29.992Z,38.43
2023-07-15T10:59:02.271Z,38.52
2023-07-15T11:01:35.097Z,38.53
2023-07-15T11:04:28.351Z,38.89
2023-07-15T11:07:04.297Z,39.19
2023-07-15T11:09:37.136Z,38.63
2023-07-15T11:12:11.662Z,38.55
2023-07-15T11:14:46.722Z,39.05
2023-07-15T11:17:19.799Z,38.92
2023-07-15T11:19:56.843Z,38.94
2023-07-15T11:22:29.438Z,38.87
2023-07-15T11:25:01.840Z,39.12
2023-07-15T11:27:34.247Z,38.75
2023-07-15T11:30:06.785Z,38.46
2023-07-15T11:32:39.303Z,39.44
2023-07-15T11:35:17.641Z,38.67
2023-07-15T11:37:50.606Z,38.18
2023-07-15T11:40:33.863Z,38.18
2023-07-15T11:43:09.777Z,38.04
2023-07-15T11:45:45.592Z,38.79
2023-07-15T11:48:24.410Z,38.63
2023-07-15T11:51:00.363Z,38.97
2023-07-15T11:53:36.006Z,39.03
2023-07-15T11:56:08.814Z,38.73
2023-07-15T11:58:42.323Z,38.79
2023-07-15T12:01:21.554Z,37.97
2023-07-15T12:03:54.092Z,37.91
2023-07-15T12:06:33.555Z,37.74
2023-07-15T12:09:07.537Z,37.35
2023-07-15T12:11:39.433Z,36.98
2023-07-15T12:14:13.565Z,37.09
2023-07-15T12:16:45.647Z,36.98
2023-07-15T12:19:20.378Z,36.30
2023-07-15T12:21:54.962Z,36.11
2023-07-15T12:24:27.262Z,36.40
2023-07-15T12:26:59.146Z,36.31
2023-07-15T12:29:39.267Z,36.17
2023-07-15T12:32:12.282Z,36.11
2023-07-15T12:34:44.721Z,36.27
2023-07-15T12:37:19.812Z,36.06
2023-07-15T12:39:52.082Z,35.99
2023-07-15T12:42:24.007Z,35.76
2023-07-15T12:44:56.225Z,35.97
2023-07-15T12:47:28.316Z,35.85
2023-07-15T12:50:01.769Z,35.97
2023-07-15T12:52:36.358Z,35.78
2023-07-15T12:55:09.727Z,35.63
2023-07-15T12:57:45.701Z,35.64
2023-07-15T13:03:59.720Z,34.92
2023-07-15T13:06:34.985Z,34.94
2023-07-15T13:09:10.009Z,35.03
2023-07-15T13:11:43.785Z,35.06
2023-07-15T13:14:16.175Z,35.11
2023-07-15T13:16:48.179Z,35.00
2023-07-15T13:19:20.587Z,34.99
2023-07-15T13:21:52.542Z,34.74
2023-07-15T13:24:28.002Z,34.88
2023-07-15T13:26:59.742Z,34.92
2023-07-15T13:29:32.223Z,34.95
2023-07-15T13:32:04.286Z,34.92
2023-07-15T13:34:36.543Z,35.06
2023-07-15T13:37:08.704Z,35.00
2023-07-15T13:39:47.179Z,34.93
2023-07-15T13:42:21.885Z,34.87
2023-07-15T13:44:58.025Z,34.77
2023-07-15T13:47:29.984Z,34.73
2023-07-15T13:50:02.403Z,34.92
2023-07-15T13:52:37.384Z,34.99
2023-07-15T13:55:13.043Z,35.09
2023-07-15T14:01:38.261Z,34.69
2023-07-15T14:04:12.675Z,34.64
2023-07-15T14:06:48.261Z,34.49
2023-07-15T14:09:21.803Z,34.69
2023-07-15T14:11:57.924Z,34.83
2023-07-15T14:14:32.498Z,34.72
2023-07-15T14:17:09.571Z,34.86
2023-07-15T14:19:41.862Z,34.75
2023-07-15T14:22:17.567Z,34.68
2023-07-15T14:24:52.518Z,34.65
2023-07-15T14:27:29.306Z,34.39
2023-07-15T14:30:01.536Z,34.39
2023-07-15T14:32:34.051Z,34.52
2023-07-15T14:35:06.225Z,34.56
2023-07-15T14:37:38.821Z,34.59
2023-07-15T14:40:12.724Z,34.60
2023-07-15T14:42:51.467Z,34.65
2023-07-15T14:45:24.723Z,34.50
2023-07-15T14:47:57.744Z,34.60
2023-07-15T14:50:29.933Z,34.73
2023-07-15T14:53:05.305Z,34.99
2023-07-15T14:55:37.536Z,35.16
2023-07-15T14:58:12.838Z,35.48
2023-07-15T15:00:45.137Z,35.62
2023-07-15T15:03:17.814Z,35.56
2023-07-15T15:05:50.614Z,35.46
2023-07-15T15:08:26.312Z,35.55
2023-07-15T15:11:02.838Z,35.46
2023-07-15T15:13:38.068Z,35.49
2023-07-15T15:16:12.659Z,35.59
2023-07-15T15:18:47.138Z,35.53
2023-07-15T15:21:20.492Z,35.51
2023-07-15T15:23:54.521Z,35.33
2023-07-15T15:26:26.663Z,35.14
2023-07-15T15:29:05.441Z,35.07
2023-07-15T15:31:37.573Z,35.14
2023-07-15T15:34:12.827Z,35.02
2023-07-15T15:36:44.863Z,35.06
2023-07-15T15:39:17.645Z,35.09
2023-07-15T15:41:58.242Z,34.77
2023-07-15T15:44:46.508Z,34.79
2023-07-15T15:47:18.643Z,34.70
2023-07-15T15:49:51.141Z,34.67
2023-07-15T15:52:23.342Z,34.35
2023-07-15T15:54:57.986Z,34.64
2023-07-15T15:57:30.330Z,34.59
2023-07-15T16:00:06.793Z,33.85
2023-07-15T16:02:39.087Z,34.04
2023-07-15T16:05:19.644Z,33.23
2023-07-15T16:07:56.224Z,32.85
2023-07-15T16:10:35.242Z,32.79
2023-07-15T16:13:09.977Z,32.50
2023-07-15T16:15:51.529Z,32.53
2023-07-15T16:18:24.201Z,32.33
2023-07-15T16:20:56.841Z,32.05
2023-07-15T16:23:28.936Z,32.12
2023-07-15T16:26:01.923Z,32.30
2023-07-15T16:28:33.949Z,32.27
2023-07-15T16:31:09.742Z,31.65
2023-07-15T16:33:42.029Z,31.34
2023-07-15T16:36:14.766Z,31.27
2023-07-15T16:38:46.919Z,31.06
2023-07-15T16:41:21.255Z,30.84
2023-07-15T16:43:55.045Z,30.96
2023-07-15T16:47:10.256Z,30.89
2023-07-15T16:50:27.917Z,30.72
2023-07-15T16:53:00.544Z,30.57
2023-07-15T16:55:33.100Z,30.25
2023-07-15T16:58:06.211Z,30.24
2023-07-15T17:00:39.052Z,29.98
2023-07-15T17:03:14.387Z,30.15
2023-07-15T17:05:46.842Z,30.26
2023-07-15T17:08:19.570Z,30.23
2023-07-15T17:10:52.121Z,30.34
2023-07-15T17:13:24.771Z,30.39
2023-07-15T17:15:56.975Z,30.48
2023-07-15T17:18:32.554Z,30.49
2023-07-15T17:24:32.203Z,30.45
2023-07-15T17:27:04.372Z,30.46
2023-07-15T17:30:12.000Z,30.45
2023-07-15T17:33:10.661Z,30.48
2023-07-15T17:36:01.725Z,30.40
2023-07-15T17:38:34.622Z,30.16
2023-07-15T17:41:08.186Z,30.19
2023-07-15T17:43:40.690Z,30.24
2023-07-15T17:46:13.320Z,30.33
2023-07-15T17:48:45.986Z,30.37
2023-07-15T17:51:21.045Z,30.31
2023-07-15T17:53:53.643Z,30.27
2023-07-15T17:56:25.901Z,30.24
2023-07-15T17:58:58.362Z,30.14
2023-07-15T18:01:30.849Z,30.03
2023-07-15T18:04:03.426Z,30.00
2023-07-15T18:06:38.412Z,29.92
2023-07-15T18:09:11.107Z,29.86
2023-07-15T18:15:55.343Z,29.70
2023-07-15T18:18:47.042Z,29.63
2023-07-15T18:21:20.985Z,29.47
2023-07-15T18:23:57.463Z,29.37
2023-07-15T18:34:29.127Z,29.20
2023-07-15T18:37:33.281Z,29.06
2023-07-15T18:40:44.940Z,29.17
2023-07-15T18:43:17.398Z,29.14
2023-07-15T18:45:49.460Z,29.15
2023-07-15T18:48:21.887Z,29.13
2023-07-15T18:51:42.571Z,29.08
2023-07-15T18:54:15.109Z,29.07
2023-07-15T18:56:49.657Z,29.04
2023-07-15T18:59:21.839Z,28.96
2023-07-15T19:01:53.819Z,28.85
2023-07-15T19:04:26.286Z,28.68
2023-07-15T19:07:05.346Z,28.61
2023-07-15T19:09:38.010Z,28.41
2023-07-15T19:12:13.521Z,28.34
2023-07-15T19:14:46.061Z,28.26
2023-07-15T19:17:18.452Z,28.20
2023-07-15T19:19:50.732Z,28.14
2023-07-15T19:22:22.669Z,28.01
2023-07-15T19:24:55.021Z,27.92
2023-07-15T19:27:29.760Z,27.85
2023-07-15T19:30:02.019Z,27.74
2023-07-15T19:32:36.717Z,27.68
2023-07-15T19:35:09.983Z,27.63
2023-07-15T19:37:41.884Z,27.58
2023-07-15T19:40:14.943Z,27.55
2023-07-15T19:42:50.121Z,27.49
2023-07-15T19:45:22.867Z,27.40
2023-07-15T19:47:57.454Z,27.36
2023-07-15T19:51:39.618Z,27.34
2023-07-15T19:54:14.870Z,27.27
2023-07-15T19:56:47.525Z,27.26
2023-07-15T19:59:22.279Z,27.19
2023-07-15T20:01:54.534Z,27.17
2023-07-15T20:04:26.458Z,27.15
2023-07-15T20:06:58.709Z,27.13
2023-07-15T20:09:30.562Z,27.14
2023-07-15T20:12:03.031Z,27.19
2023-07-15T20:14:37.694Z,27.26
2023-07-15T20:17:11.511Z,27.23
2023-07-15T20:19:43.694Z,27.24
2023-07-15T20:22:17.817Z,27.00
2023-07-15T20:24:50.533Z,26.80
2023-07-15T20:27:23.209Z,26.76
2023-07-15T20:29:58.581Z,26.53
2023-07-15T20:32:31.448Z,26.15
2023-07-15T20:35:04.043Z,26.21
2023-07-15T20:37:36.944Z,26.15
2023-07-15T20:40:19.447Z,25.92
2023-07-15T20:42:52.190Z,25.87
2023-07-15T20:45:27.695Z,25.74
2023-07-15T20:48:00.610Z,25.90
2023-07-15T20:50:33.383Z,26.09
2023-07-15T20:53:09.107Z,26.09
2023-07-15T20:55:43.253Z,26.10
2023-07-15T20:58:16.159Z,25.94
2023-07-15T21:00:55.547Z,25.97
2023-07-15T21:03:29.407Z,25.90
2023-07-15T21:06:04.882Z,26.08
2023-07-15T21:08:40.640Z,26.22
2023-07-15T21:11:15.339Z,26.20
2023-07-15T21:13:48.150Z,26.18
2023-07-15T21:16:23.337Z,26.27
2023-07-15T21:18:56.421Z,26.30
2023-07-15T21:21:29.019Z,26.32
2023-07-15T21:24:01.645Z,26.30
2023-07-15T21:26:34.140Z,26.35
2023-07-15T21:29:10.850Z,26.33
2023-07-15T21:31:45.954Z,26.33
2023-07-15T21:34:18.173Z,26.25
2023-07-15T21:36:51.234Z,26.22
2023-07-15T21:39:23.552Z,26.26
2023-07-15T21:41:55.533Z,26.05
2023-07-15T21:44:27.902Z,25.81
2023-07-15T21:47:02.380Z,25.08
2023-07-15T21:49:34.637Z,24.00
2023-07-15T21:52:23.164Z,23.39
2023-07-15T21:54:55.369Z,23.15
2023-07-15T21:57:27.266Z,23.09
2023-07-15T21:59:59.563Z,22.98
2023-07-15T22:02:34.514Z,23.03
2023-07-15T22:05:09.926Z,23.13
2023-07-15T22:07:44.344Z,23.16
2023-07-15T22:10:16.749Z,23.32
2023-07-15T22:12:48.829Z,23.43
2023-07-15T22:15:21.273Z,23.48
2023-07-15T22:17:55.940Z,23.48
2023-07-15T22:20:28.564Z,23.53
2023-07-15T22:23:10.976Z,23.57
2023-07-15T22:25:43.564Z,23.45
2023-07-15T22:28:15.505Z,23.57
2023-07-15T22:30:47.926Z,23.58
2023-07-15T22:33:22.428Z,23.57
2023-07-15T22:35:54.768Z,23.53
2023-07-15T22:38:26.832Z,23.42
2023-07-15T22:40:59.404Z,23.27
2023-07-15T22:43:31.463Z,23.12
2023-07-15T22:46:04.112Z,23.08
2023-07-15T22:48:39.404Z,23.19
2023-07-15T22:51:11.680Z,23.21
2023-07-15T22:53:43.793Z,23.22
2023-07-15T22:56:18.087Z,23.15
2023-07-15T22:58:50.114Z,23.16
2023-07-15T23:01:22.456Z,23.12
2023-07-15T23:04:21.341Z,23.10
2023-07-15T23:06:56.421Z,23.07
2023-07-15T23:09:28.448Z,23.10
2023-07-15T23:12:01.196Z,23.13
2023-07-15T23:14:33.142Z,23.11
2023-07-15T23:17:05.630Z,22.99
2023-07-15T23:19:40.290Z,23.00
2023-07-15T23:22:12.702Z,23.01
2023-07-15T23:24:44.869Z,23.05
2023-07-15T23:27:17.401Z,23.08
2023-07-15T23:29:49.667Z,23.11
2023-07-15T23:32:35.596Z,23.08
2023-07-15T23:35:14.381Z,23.01
2023-07-15T23:37:48.186Z,23.03
2023-07-15T23:40:20.522Z,23.00
2023-07-15T23:42:53.177Z,22.99
2023-07-15T23:45:27.481Z,23.00
2023-07-15T23:48:03.166Z,22.77
2023-07-15T23:50:38.687Z,22.82
2023-07-15T23:53:11.222Z,22.82
2023-07-15T23:55:43.361Z,22.89
2023-07-15T23:58:15.983Z,22.75
